Time;durP1;ratioP1;P1;durP2;ratioP2;P2;SDS_P1;SDS_P2;PMS_P1;PMS_P2;Temp;Humidity;BMP_temperature;BMP_pressure;BME280_temperature;BME280_humidity;BME280_pressure;Samples;Min_cycle;Max_cycle;Signal;HPM_P1;HPM_P2
2021/07/19 00:02:06;;;;;;;5.10;4.70;;;22.70;68.90;;;;;;5043510;28;20545;-43
2021/07/19 00:04:39;;;;;;;5.70;5.03;;;22.60;68.90;;;;;;5037676;28;20469;-44
2021/07/19 00:07:06;;;;;;;5.27;4.77;;;22.60;68.80;;;;;;5044823;28;20456;-45
2021/07/19 00:09:34;;;;;;;6.50;5.30;;;22.60;68.80;;;;;;5035323;28;20463;-43
2021/07/19 00:12:02;;;;;;;5.83;5.23;;;22.60;68.80;;;;;;5038869;28;20506;-43
2021/07/19 00:14:30;;;;;;;8.63;5.97;;;22.60;68.50;;;;;;5043492;28;20532;-44
2021/07/19 00:16:57;;;;;;;5.33;4.73;;;22.60;68.50;;;;;;5041821;28;20471;-45
2021/07/19 00:19:25;;;;;;;6.33;5.13;;;22.50;68.80;;;;;;5038176;28;20533;-44
2021/07/19 00:21:52;;;;;;;7.20;4.53;;;22.50;69.10;;;;;;5039672;28;20494;-45
2021/07/19 00:24:18;;;;;;;5.77;5.27;;;22.50;69.40;;;;;;5046514;28;20513;-43
2021/07/19 00:26:45;;;;;;;6.13;5.53;;;22.50;69.40;;;;;;5037948;28;20451;-43
2021/07/19 00:29:12;;;;;;;6.77;5.07;;;22.50;69.40;;;;;;5039367;28;20483;-44
2021/07/19 00:31:39;;;;;;;6.30;4.60;;;22.40;69.40;;;;;;5041230;28;20550;-44
2021/07/19 00:34:06;;;;;;;7.93;4.93;;;22.40;69.50;;;;;;5040708;28;20517;-44
2021/07/19 00:36:33;;;;;;;5.93;5.20;;;22.40;69.60;;;;;;5038328;28;20455;-43
2021/07/19 00:39:00;;;;;;;6.60;5.20;;;22.30;69.80;;;;;;5036493;28;20469;-45
2021/07/19 00:41:27;;;;;;;6.83;5.63;;;22.30;70.20;;;;;;5038680;28;20453;-43
2021/07/19 00:43:54;;;;;;;7.33;4.87;;;22.30;70.30;;;;;;5035870;28;21031;-42
2021/07/19 00:46:23;;;;;;;5.37;4.87;;;22.20;70.20;;;;;;5044274;28;20553;-45
2021/07/19 00:48:50;;;;;;;5.27;4.60;;;22.20;70.20;;;;;;5039322;28;21017;-44
2021/07/19 00:51:17;;;;;;;6.53;5.00;;;22.20;70.50;;;;;;5037476;28;20871;-44
2021/07/19 00:53:44;;;;;;;5.60;5.07;;;22.10;70.40;;;;;;5043592;28;20497;-43
2021/07/19 00:56:13;;;;;;;6.70;5.27;;;22.10;70.40;;;;;;5043567;28;20546;-44
2021/07/19 00:58:41;;;;;;;7.00;5.83;;;22.00;70.60;;;;;;5041522;28;20546;-43
2021/07/19 01:01:11;;;;;;;8.53;5.83;;;22.00;70.90;;;;;;5038599;28;20463;-45
2021/07/19 01:03:39;;;;;;;6.83;5.10;;;22.00;70.80;;;;;;5033948;28;20470;-43
2021/07/19 01:06:07;;;;;;;6.07;5.47;;;22.00;70.90;;;;;;5032358;28;20516;-44
2021/07/19 01:08:35;;;;;;;5.40;4.93;;;22.00;71.30;;;;;;5037979;28;20987;-44
2021/07/19 01:11:02;;;;;;;5.97;5.37;;;22.00;71.50;;;;;;5039238;28;20546;-44
2021/07/19 01:13:29;;;;;;;6.07;5.47;;;21.90;71.50;;;;;;5035008;28;20990;-44
2021/07/19 01:15:56;;;;;;;6.10;5.33;;;21.90;71.60;;;;;;5029261;28;20550;-43
2021/07/19 01:18:23;;;;;;;5.80;5.20;;;21.90;71.60;;;;;;5035260;28;20459;-44
2021/07/19 01:21:10;;;;;;;5.70;5.20;;;21.80;71.60;;;;;;5036555;28;20855;-43
2021/07/19 01:23:48;;;;;;;5.90;4.87;;;21.80;71.70;;;;;;5034749;28;20494;-42
2021/07/19 01:26:43;;;;;;;5.77;5.27;;;21.80;71.60;;;;;;5031693;28;21026;-44
2021/07/19 01:29:13;;;;;;;5.30;4.80;;;21.70;71.50;;;;;;5034980;28;20498;-44
2021/07/19 01:31:44;;;;;;;7.47;5.80;;;21.70;71.60;;;;;;5040264;28;20968;-43
2021/07/19 01:34:23;;;;;;;6.40;5.80;;;21.70;71.90;;;;;;5033715;28;20477;-44
2021/07/19 01:36:56;;;;;;;7.87;5.50;;;21.60;72.10;;;;;;5036731;28;20486;-44
2021/07/19 01:39:26;;;;;;;7.30;6.03;;;21.60;72.40;;;;;;5037074;28;20499;-44
2021/07/19 01:41:54;;;;;;;5.83;5.23;;;21.60;72.60;;;;;;5031919;28;20541;-43
2021/07/19 01:44:22;;;;;;;5.90;5.40;;;21.60;73.00;;;;;;5032396;28;20538;-43
2021/07/19 01:46:50;;;;;;;6.80;5.23;;;21.60;72.70;;;;;;5041403;28;20451;-43
2021/07/19 01:49:18;;;;;;;5.50;5.00;;;21.60;72.70;;;;;;5034852;28;20520;-43
2021/07/19 01:51:46;;;;;;;7.57;5.23;;;21.50;72.50;;;;;;5036946;28;20549;-44
2021/07/19 01:54:14;;;;;;;6.53;5.67;;;21.50;72.40;;;;;;5037703;28;20561;-43
2021/07/19 01:56:45;;;;;;;5.57;5.07;;;21.50;72.60;;;;;;5032079;28;20543;-44
2021/07/19 01:59:12;;;;;;;6.30;5.70;;;21.40;72.80;;;;;;5037501;28;20803;-43
2021/07/19 02:01:40;;;;;;;5.97;5.33;;;21.40;72.90;;;;;;5034119;28;20895;-43
2021/07/19 02:04:09;;;;;;;6.10;5.50;;;21.30;72.90;;;;;;5036125;28;20471;-43
2021/07/19 02:06:42;;;;;;;7.33;5.47;;;21.30;73.10;;;;;;5032037;28;20466;-43
2021/07/19 02:09:11;;;;;;;5.70;5.20;;;21.20;73.20;;;;;;5035550;28;20454;-44
2021/07/19 02:11:39;;;;;;;5.00;4.50;;;21.20;73.30;;;;;;5036355;28;20983;-43
2021/07/19 02:14:08;;;;;;;5.50;4.60;;;21.20;73.40;;;;;;5037039;28;20482;-43
2021/07/19 02:16:39;;;;;;;5.90;4.87;;;21.10;73.40;;;;;;5030018;28;21053;-44
2021/07/19 02:19:08;;;;;;;5.90;5.20;;;21.10;73.50;;;;;;5036678;28;21011;-44
2021/07/19 02:21:36;;;;;;;6.30;5.70;;;21.00;73.60;;;;;;5031576;28;20447;-43
2021/07/19 02:24:04;;;;;;;6.27;5.20;;;21.00;73.80;;;;;;5036624;28;20549;-42
2021/07/19 02:26:31;;;;;;;7.47;6.00;;;21.00;74.10;;;;;;5032367;28;20494;-42
2021/07/19 02:28:58;;;;;;;5.17;4.53;;;20.90;74.20;;;;;;5034247;28;20458;-42
2021/07/19 02:31:26;;;;;;;7.13;5.70;;;20.90;74.10;;;;;;5036695;28;20497;-42
2021/07/19 02:33:54;;;;;;;6.40;5.37;;;20.80;73.90;;;;;;5032268;28;20833;-43
2021/07/19 02:36:22;;;;;;;5.40;4.90;;;20.80;74.20;;;;;;5036374;28;20533;-42
2021/07/19 02:38:51;;;;;;;6.90;5.50;;;20.70;74.10;;;;;;5035546;28;20466;-42
2021/07/19 02:41:22;;;;;;;5.83;5.23;;;20.70;74.00;;;;;;5035297;28;20550;-43
2021/07/19 02:43:50;;;;;;;6.63;5.40;;;20.60;74.20;;;;;;5033241;28;20475;-43
2021/07/19 02:46:22;;;;;;;6.30;5.70;;;20.60;74.50;;;;;;5034819;28;20494;-42
2021/07/19 02:48:54;;;;;;;6.80;6.10;;;20.60;74.70;;;;;;5033738;28;20459;-42
2021/07/19 02:51:22;;;;;;;5.30;4.90;;;20.60;74.80;;;;;;5034487;28;20539;-42
2021/07/19 02:53:53;;;;;;;5.60;5.10;;;20.50;75.00;;;;;;5033195;28;20486;-43
2021/07/19 02:56:23;;;;;;;5.53;5.03;;;20.50;75.20;;;;;;5036171;28;20508;-43
2021/07/19 02:58:51;;;;;;;5.60;5.07;;;20.40;75.30;;;;;;5033605;28;20494;-42
2021/07/19 03:01:21;;;;;;;11.23;5.83;;;20.40;75.50;;;;;;5037122;28;20459;-43
2021/07/19 03:03:49;;;;;;;6.90;6.20;;;20.30;75.60;;;;;;5032844;28;20463;-42
2021/07/19 03:06:19;;;;;;;5.93;4.70;;;20.30;75.70;;;;;;5034733;28;20489;-43
2021/07/19 03:08:48;;;;;;;6.83;5.30;;;20.30;75.70;;;;;;5035419;28;20887;-43
2021/07/19 03:11:25;;;;;;;7.30;6.67;;;20.30;75.80;;;;;;5033895;28;20446;-41
2021/07/19 03:13:55;;;;;;;6.20;5.40;;;20.20;75.90;;;;;;5032723;28;20531;-43
2021/07/19 03:16:26;;;;;;;5.70;5.10;;;20.20;75.90;;;;;;5034148;28;20471;-43
2021/07/19 03:18:56;;;;;;;5.30;4.87;;;20.10;75.90;;;;;;5032863;28;20501;-42
2021/07/19 03:21:24;;;;;;;6.57;5.37;;;20.10;76.10;;;;;;5032810;28;20554;-43
2021/07/19 03:23:53;;;;;;;5.63;5.03;;;20.10;76.10;;;;;;5033405;28;20901;-42
2021/07/19 03:26:21;;;;;;;8.20;5.37;;;20.00;76.10;;;;;;5039372;28;20553;-42
2021/07/19 03:28:49;;;;;;;9.23;4.70;;;20.00;76.00;;;;;;5034975;28;20491;-43
2021/07/19 03:31:17;;;;;;;5.83;5.17;;;20.00;75.70;;;;;;5041837;28;20560;-42
2021/07/19 03:33:45;;;;;;;7.43;5.20;;;20.00;75.50;;;;;;5037601;28;20461;-42
2021/07/19 03:36:12;;;;;;;5.70;5.13;;;20.00;75.50;;;;;;5035477;28;21088;-43
2021/07/19 03:38:42;;;;;;;7.80;5.80;;;19.90;75.50;;;;;;5041479;28;20486;-42
2021/07/19 03:41:11;;;;;;;5.00;4.57;;;19.90;75.70;;;;;;5037238;28;21078;-42
2021/07/19 03:43:38;;;;;;;6.67;5.07;;;19.80;75.70;;;;;;5036489;28;20570;-43
2021/07/19 03:46:05;;;;;;;8.97;5.03;;;19.80;75.90;;;;;;5037527;28;20546;-42
2021/07/19 03:48:34;;;;;;;5.57;4.80;;;19.70;76.10;;;;;;5036456;28;20443;-43
2021/07/19 03:51:01;;;;;;;6.73;5.63;;;19.70;76.20;;;;;;5036317;28;20909;-43
2021/07/19 03:53:29;;;;;;;7.10;5.10;;;19.60;76.30;;;;;;5037619;28;20534;-42
2021/07/19 03:55:57;;;;;;;6.20;5.00;;;19.60;76.40;;;;;;5034668;28;20565;-43
2021/07/19 03:58:24;;;;;;;6.20;4.30;;;19.60;76.60;;;;;;5035347;28;20534;-43
2021/07/19 04:00:52;;;;;;;5.80;4.93;;;19.60;76.80;;;;;;5035209;28;20520;-43
2021/07/19 04:03:25;;;;;;;7.40;5.07;;;19.60;76.80;;;;;;5039267;28;20491;-42
2021/07/19 04:06:02;;;;;;;5.30;4.60;;;19.60;77.00;;;;;;5037605;28;20553;-42
2021/07/19 04:08:35;;;;;;;5.17;4.60;;;19.60;77.20;;;;;;5032948;28;20970;-43
2021/07/19 04:11:03;;;;;;;7.50;5.83;;;19.60;77.30;;;;;;5038894;28;20487;-43
2021/07/19 04:13:30;;;;;;;7.00;5.90;;;19.60;77.10;;;;;;5033495;28;21008;-42
2021/07/19 04:15:59;;;;;;;8.47;4.90;;;19.60;77.10;;;;;;5035991;28;20486;-42
2021/07/19 04:18:26;;;;;;;6.83;6.00;;;19.60;77.10;;;;;;5034852;28;20451;-42
2021/07/19 04:20:55;;;;;;;6.87;6.03;;;19.60;77.10;;;;;;5037072;28;20501;-43
2021/07/19 04:23:23;;;;;;;8.70;5.80;;;19.50;77.10;;;;;;5037342;28;21013;-43
2021/07/19 04:25:50;;;;;;;6.00;5.33;;;19.50;77.30;;;;;;5035459;28;20503;-43
2021/07/19 04:28:23;;;;;;;10.77;6.00;;;19.50;77.50;;;;;;5038011;28;20551;-43
2021/07/19 04:30:51;;;;;;;8.07;5.30;;;19.50;77.60;;;;;;5035005;28;20963;-42
2021/07/19 04:33:19;;;;;;;9.60;5.27;;;19.50;77.70;;;;;;5034663;28;20455;-43
2021/07/19 04:35:47;;;;;;;6.07;4.57;;;19.50;77.80;;;;;;5032373;28;20523;-42
2021/07/19 04:38:16;;;;;;;6.37;4.77;;;19.50;77.90;;;;;;5034381;28;21004;-43
2021/07/19 04:40:56;;;;;;;6.53;5.53;;;19.50;78.10;;;;;;5037551;28;20467;-42
2021/07/19 04:43:25;;;;;;;8.00;5.47;;;19.60;78.40;;;;;;5033839;28;20934;-43
2021/07/19 04:45:52;;;;;;;7.00;5.47;;;19.60;78.20;;;;;;5036342;28;20487;-43
2021/07/19 04:48:19;;;;;;;7.07;5.13;;;19.70;78.00;;;;;;5037965;28;21025;-42
2021/07/19 04:50:47;;;;;;;6.40;5.30;;;19.70;77.90;;;;;;5037999;28;20546;-43
2021/07/19 04:53:17;;;;;;;8.10;5.50;;;19.70;77.80;;;;;;5035612;28;20549;-41
2021/07/19 04:55:51;;;;;;;6.83;5.30;;;19.70;77.90;;;;;;5032743;28;20606;-42
2021/07/19 04:58:23;;;;;;;6.73;4.87;;;19.80;77.80;;;;;;5033347;28;20545;-42
2021/07/19 05:00:56;;;;;;;6.90;5.87;;;19.80;77.40;;;;;;5038630;28;21010;-42
2021/07/19 05:03:27;;;;;;;8.60;5.87;;;19.80;77.50;;;;;;5038338;28;20558;-42
2021/07/19 05:05:55;;;;;;;5.40;4.90;;;19.90;77.80;;;;;;5034233;28;20455;-42
2021/07/19 05:08:25;;;;;;;5.87;5.23;;;19.90;77.90;;;;;;5038715;28;20486;-42
2021/07/19 05:10:53;;;;;;;9.90;5.53;;;19.90;78.00;;;;;;5034787;28;20464;-42
2021/07/19 05:13:20;;;;;;;7.70;5.80;;;19.90;78.10;;;;;;5034185;28;20574;-42
2021/07/19 05:15:48;;;;;;;7.30;5.23;;;20.00;78.10;;;;;;5034221;28;20563;-43
2021/07/19 05:18:18;;;;;;;6.57;5.83;;;20.00;78.20;;;;;;5031858;28;20489;-43
2021/07/19 05:20:48;;;;;;;6.67;5.10;;;20.10;78.20;;;;;;5039828;28;20455;-43
2021/07/19 05:23:23;;;;;;;8.37;5.77;;;20.10;78.00;;;;;;5033602;28;20460;-43
2021/07/19 05:25:51;;;;;;;7.67;6.47;;;20.20;77.60;;;;;;5034289;28;20479;-43
2021/07/19 05:28:18;;;;;;;7.80;5.70;;;20.10;77.10;;;;;;5033386;28;20575;-42
2021/07/19 05:30:51;;;;;;;7.30;5.57;;;20.20;76.90;;;;;;5034660;28;20465;-43
2021/07/19 05:33:21;;;;;;;6.87;5.67;;;20.30;76.60;;;;;;5033232;28;20547;-42
2021/07/19 05:35:48;;;;;;;8.90;5.37;;;20.30;76.40;;;;;;5031919;28;20487;-42
2021/07/19 05:38:15;;;;;;;5.63;5.10;;;20.40;76.00;;;;;;5036013;28;21252;-42
2021/07/19 05:40:43;;;;;;;7.50;5.50;;;20.50;75.90;;;;;;5034520;28;20550;-42
2021/07/19 05:43:10;;;;;;;5.90;5.10;;;20.50;75.70;;;;;;5032778;28;20545;-43
2021/07/19 05:45:37;;;;;;;7.23;5.27;;;20.50;75.70;;;;;;5034541;28;20512;-42
2021/07/19 05:48:06;;;;;;;9.43;5.20;;;20.60;75.60;;;;;;5037628;28;20465;-43
2021/07/19 05:50:34;;;;;;;5.47;4.93;;;20.70;75.20;;;;;;5033425;28;20459;-42
2021/07/19 05:53:00;;;;;;;7.73;5.83;;;20.70;74.90;;;;;;5037322;28;20540;-42
2021/07/19 05:55:29;;;;;;;6.50;4.90;;;20.80;74.60;;;;;;5026214;28;20909;-43
2021/07/19 05:57:59;;;;;;;6.80;4.50;;;20.80;74.70;;;;;;5022067;28;20967;-42
2021/07/19 06:00:27;;;;;;;6.70;5.47;;;20.90;74.80;;;;;;5022318;28;20558;-42
2021/07/19 06:02:53;;;;;;;8.13;5.37;;;20.90;75.00;;;;;;5022520;28;20486;-42
2021/07/19 06:05:21;;;;;;;6.07;5.30;;;21.00;75.00;;;;;;5030424;28;20490;-42
2021/07/19 06:07:48;;;;;;;5.77;5.27;;;21.00;75.10;;;;;;5036023;28;20462;-43
2021/07/19 06:10:15;;;;;;;6.97;5.20;;;21.10;74.60;;;;;;5032977;28;20482;-42
2021/07/19 06:12:42;;;;;;;5.87;5.17;;;21.20;74.30;;;;;;5034795;28;20549;-44
2021/07/19 06:15:11;;;;;;;6.93;5.20;;;21.10;74.10;;;;;;5034927;28;20521;-43
2021/07/19 06:17:39;;;;;;;6.93;5.50;;;21.20;74.40;;;;;;5032437;28;20500;-44
2021/07/19 06:20:11;;;;;;;6.07;5.47;;;21.20;74.00;;;;;;5041281;28;20520;-43
2021/07/19 06:22:39;;;;;;;7.53;5.40;;;21.30;74.00;;;;;;5033138;28;20671;-44
2021/07/19 06:25:07;;;;;;;7.63;5.13;;;21.30;74.00;;;;;;5036506;28;20482;-44
2021/07/19 06:27:34;;;;;;;8.07;4.83;;;21.40;73.90;;;;;;5037549;28;20486;-44
2021/07/19 06:30:01;;;;;;;7.93;5.23;;;21.50;73.80;;;;;;5033912;28;20465;-43
2021/07/19 06:32:29;;;;;;;7.43;5.30;;;21.60;73.50;;;;;;5025815;28;20935;-42
2021/07/19 06:34:56;;;;;;;5.30;4.40;;;21.60;73.30;;;;;;5030164;28;21066;-44
2021/07/19 06:37:23;;;;;;;6.60;4.80;;;21.70;73.40;;;;;;5038423;28;20537;-43
2021/07/19 06:39:50;;;;;;;5.10;4.13;;;21.80;73.20;;;;;;5036809;28;20896;-43
2021/07/19 06:42:18;;;;;;;5.03;4.53;;;21.80;72.90;;;;;;5031719;28;20906;-44
2021/07/19 06:44:47;;;;;;;9.70;4.70;;;21.90;73.00;;;;;;5035651;28;20447;-43
2021/07/19 06:47:13;;;;;;;8.27;5.23;;;22.00;72.60;;;;;;5035559;28;20464;-44
2021/07/19 06:49:40;;;;;;;6.43;4.90;;;22.10;72.40;;;;;;5034306;28;20442;-44
2021/07/19 06:52:07;;;;;;;7.10;5.03;;;22.20;72.00;;;;;;5036216;28;20533;-44
2021/07/19 06:54:34;;;;;;;7.47;5.33;;;22.30;71.90;;;;;;5036695;28;20493;-43
2021/07/19 06:57:01;;;;;;;5.70;4.90;;;22.40;72.10;;;;;;5034269;28;20483;-44
2021/07/19 06:59:28;;;;;;;6.60;5.00;;;22.50;71.60;;;;;;5039896;28;20535;-44
2021/07/19 07:01:55;;;;;;;5.53;4.90;;;22.60;71.60;;;;;;5035296;28;20541;-43
2021/07/19 07:04:22;;;;;;;5.10;4.30;;;22.70;71.00;;;;;;5026925;28;20450;-43
2021/07/19 07:06:49;;;;;;;6.27;4.77;;;22.80;71.00;;;;;;5029897;28;21013;-43
2021/07/19 07:09:16;;;;;;;6.43;4.73;;;22.90;70.80;;;;;;5035077;28;20490;-43
2021/07/19 07:11:43;;;;;;;4.97;4.43;;;22.90;70.70;;;;;;5037418;28;20553;-43
2021/07/19 07:14:10;;;;;;;5.10;4.60;;;22.90;70.20;;;;;;5038741;28;20451;-43
2021/07/19 07:16:37;;;;;;;7.70;4.30;;;22.90;70.50;;;;;;5037175;28;20933;-44
2021/07/19 07:19:04;;;;;;;6.57;4.40;;;23.00;70.10;;;;;;5036785;28;20558;-43
2021/07/19 07:21:33;;;;;;;5.10;4.60;;;23.00;69.70;;;;;;5038236;28;20464;-44
2021/07/19 07:24:00;;;;;;;7.23;4.47;;;23.00;69.80;;;;;;5036625;28;20463;-44
2021/07/19 07:26:27;;;;;;;5.73;4.30;;;23.00;70.10;;;;;;5038245;28;20545;-44
2021/07/19 07:28:54;;;;;;;6.03;5.43;;;23.10;69.60;;;;;;5040249;28;20478;-43
2021/07/19 07:31:26;;;;;;;8.47;4.63;;;23.10;68.90;;;;;;5036455;28;20462;-44
2021/07/19 07:33:55;;;;;;;8.83;4.53;;;23.30;68.60;;;;;;5032239;28;20467;-44
2021/07/19 07:36:23;;;;;;;7.33;4.40;;;23.50;68.60;;;;;;5035944;28;21106;-43
2021/07/19 07:38:50;;;;;;;5.53;4.73;;;23.60;67.80;;;;;;5036749;28;20955;-43
2021/07/19 07:41:18;;;;;;;7.63;4.67;;;23.70;67.40;;;;;;5035302;28;20549;-43
2021/07/19 07:43:45;;;;;;;4.70;4.07;;;23.80;67.30;;;;;;5034188;28;20537;-43
2021/07/19 07:46:13;;;;;;;4.80;4.40;;;23.90;66.80;;;;;;5038265;28;20529;-43
2021/07/19 07:48:40;;;;;;;6.00;4.33;;;24.10;67.00;;;;;;5036787;28;20520;-43
2021/07/19 07:51:09;;;;;;;7.20;4.47;;;24.20;66.70;;;;;;5037556;28;20505;-42
2021/07/19 07:53:37;;;;;;;6.27;4.70;;;24.40;66.50;;;;;;5029337;28;20459;-43
2021/07/19 07:56:04;;;;;;;4.87;4.40;;;24.60;64.80;;;;;;5032021;28;20871;-44
2021/07/19 07:58:31;;;;;;;4.00;3.60;;;24.90;64.20;;;;;;5035315;28;20856;-44
2021/07/19 08:00:58;;;;;;;5.30;4.80;;;25.10;63.40;;;;;;5032625;28;20453;-43
2021/07/19 08:03:25;;;;;;;4.30;3.90;;;25.30;63.30;;;;;;5032832;28;21017;-43
2021/07/19 08:05:52;;;;;;;5.20;4.70;;;25.40;63.40;;;;;;5034769;28;20897;-43
2021/07/19 08:08:19;;;;;;;3.97;3.67;;;25.50;61.80;;;;;;5037541;28;20455;-44
2021/07/19 08:10:46;;;;;;;4.40;4.00;;;25.60;60.70;;;;;;5034378;28;20571;-43
2021/07/19 08:13:13;;;;;;;9.03;4.20;;;25.60;59.90;;;;;;5034017;28;20454;-43
2021/07/19 08:15:40;;;;;;;6.53;4.40;;;25.40;60.20;;;;;;5038671;28;20581;-43
2021/07/19 08:18:07;;;;;;;5.80;3.80;;;25.30;60.60;;;;;;5034246;28;20558;-44
2021/07/19 08:20:34;;;;;;;3.90;3.60;;;25.20;61.20;;;;;;5035484;28;20556;-43
2021/07/19 08:23:01;;;;;;;5.17;3.90;;;25.00;62.00;;;;;;5037735;28;20484;-44
2021/07/19 08:25:27;;;;;;;6.13;4.10;;;24.90;62.50;;;;;;5033508;28;20863;-44
2021/07/19 08:27:55;;;;;;;5.30;3.60;;;24.70;62.90;;;;;;5036079;28;20489;-43
2021/07/19 08:30:22;;;;;;;4.83;4.13;;;24.60;63.70;;;;;;5031964;28;20455;-44
2021/07/19 08:32:49;;;;;;;4.23;3.77;;;24.50;63.50;;;;;;5036697;28;20541;-44
2021/07/19 08:35:16;;;;;;;7.17;4.47;;;24.40;63.00;;;;;;5032838;28;20459;-44
2021/07/19 08:37:47;;;;;;;7.90;4.17;;;24.40;63.70;;;;;;5034245;28;20489;-44
2021/07/19 08:40:16;;;;;;;5.63;4.40;;;24.50;63.30;;;;;;5031369;28;20955;-44
2021/07/19 08:42:43;;;;;;;4.23;3.80;;;24.60;62.30;;;;;;5035411;28;20481;-43
2021/07/19 08:45:11;;;;;;;5.20;4.20;;;24.70;62.50;;;;;;5042697;28;20447;-43
2021/07/19 08:47:49;;;;;;;4.40;4.00;;;24.80;61.00;;;;;;5034843;28;20534;-43
2021/07/19 08:50:18;;;;;;;7.83;4.70;;;25.00;61.60;;;;;;5036384;28;20454;-43
2021/07/19 08:52:53;;;;;;;4.13;3.63;;;25.20;60.60;;;;;;5034173;28;20454;-44
2021/07/19 08:55:21;;;;;;;6.00;4.37;;;25.40;61.30;;;;;;5033846;28;20449;-43
2021/07/19 08:57:49;;;;;;;7.37;3.50;;;25.70;61.20;;;;;;5035513;28;20467;-43
2021/07/19 09:00:22;;;;;;;8.33;4.40;;;25.90;58.90;;;;;;5034099;28;20465;-43
2021/07/19 09:02:53;;;;;;;5.27;4.77;;;26.10;58.90;;;;;;5035733;28;20461;-43
2021/07/19 09:05:20;;;;;;;7.43;4.10;;;26.20;58.00;;;;;;5037789;28;20455;-44
2021/07/19 09:07:47;;;;;;;5.13;3.90;;;26.40;57.40;;;;;;5037265;28;20522;-44
2021/07/19 09:10:14;;;;;;;4.70;3.90;;;26.40;58.00;;;;;;5034106;28;20458;-43
2021/07/19 09:12:44;;;;;;;5.63;3.63;;;26.40;57.80;;;;;;5036055;28;20496;-43
2021/07/19 09:15:13;;;;;;;5.67;4.47;;;26.40;58.30;;;;;;5039483;28;20485;-44
2021/07/19 09:17:41;;;;;;;6.50;3.80;;;26.40;57.30;;;;;;5037334;28;20483;-43
2021/07/19 09:20:13;;;;;;;5.30;4.07;;;26.50;57.20;;;;;;5035389;28;21124;-43
2021/07/19 09:22:40;;;;;;;7.17;4.33;;;26.60;56.90;;;;;;5034384;28;21026;-43
2021/07/19 09:25:11;;;;;;;4.77;3.80;;;26.70;57.20;;;;;;5034397;28;20517;-44
2021/07/19 09:28:01;;;;;;;5.37;4.43;;;26.70;56.30;;;;;;5039527;28;22587;-44
2021/07/19 09:30:29;;;;;;;4.47;3.37;;;27.10;55.30;;;;;;5035875;28;20355;-43
2021/07/19 09:33:06;;;;;;;4.77;3.87;;;27.30;54.50;;;;;;5038742;28;20454;-43
2021/07/19 09:35:35;;;;;;;4.43;3.67;;;27.60;54.50;;;;;;5033904;28;20541;-44
2021/07/19 09:38:07;;;;;;;5.17;4.40;;;27.70;54.40;;;;;;5031576;28;20867;-43
2021/07/19 09:40:36;;;;;;;8.37;4.43;;;27.60;54.10;;;;;;5038088;28;20455;-43
2021/07/19 09:43:12;;;;;;;4.40;4.00;;;27.60;54.00;;;;;;5032434;28;20669;-43
2021/07/19 09:45:40;;;;;;;5.53;4.10;;;27.90;53.80;;;;;;5033706;28;20215;-44
2021/07/19 09:48:10;;;;;;;4.10;3.70;;;28.30;52.90;;;;;;5028473;28;20210;-44
2021/07/19 09:50:55;;;;;;;5.20;3.57;;;28.90;51.50;;;;;;5034583;28;20295;-43
2021/07/19 09:53:40;;;;;;;3.63;3.20;;;29.50;50.00;;;;;;5033308;28;20238;-43
2021/07/19 09:56:06;;;;;;;4.65;4.00;;;29.90;48.90;;;;;;5030764;28;20223;-43
2021/07/19 09:58:33;;;;;;;3.83;3.40;;;30.50;48.30;;;;;;5031781;28;20681;-43
2021/07/19 10:01:00;;;;;;;6.13;4.20;;;30.90;46.70;;;;;;5028948;28;20611;-44
2021/07/19 10:03:30;;;;;;;4.78;3.92;;;31.00;46.20;;;;;;5030868;28;20208;-43
2021/07/19 10:06:07;;;;;;;4.35;3.60;;;31.00;46.30;;;;;;5036502;28;20581;-44
2021/07/19 10:08:35;;;;;;;4.25;3.85;;;31.00;46.20;;;;;;5036704;28;20290;-43
2021/07/19 10:11:13;;;;;;;4.15;3.45;;;31.20;45.80;;;;;;5040832;28;20265;-44
2021/07/19 10:13:39;;;;;;;10.10;3.40;;;31.60;44.90;;;;;;5033297;28;20322;-44
2021/07/19 10:16:07;;;;;;;6.20;3.80;;;32.10;44.60;;;;;;5034005;28;20231;-43
2021/07/19 10:18:36;;;;;;;4.88;3.90;;;32.30;43.20;;;;;;5035877;28;20453;-42
2021/07/19 10:21:05;;;;;;;4.25;3.83;;;32.20;43.30;;;;;;5031636;28;20208;-43
2021/07/19 10:23:32;;;;;;;7.60;3.75;;;31.80;44.30;;;;;;5030222;28;20665;-43
2021/07/19 10:25:58;;;;;;;4.70;3.80;;;31.30;45.60;;;;;;5030983;28;20607;-44
2021/07/19 10:28:26;;;;;;;4.80;3.97;;;31.00;45.80;;;;;;5030707;28;20231;-44
2021/07/19 10:30:56;;;;;;;4.45;3.85;;;30.50;46.00;;;;;;5032052;28;20299;-43
2021/07/19 10:33:26;;;;;;;5.28;3.78;;;30.10;46.80;;;;;;5033884;28;20208;-43
2021/07/19 10:35:58;;;;;;;4.90;4.50;;;30.10;47.00;;;;;;5032298;28;20211;-43
2021/07/19 10:38:29;;;;;;;5.07;4.32;;;30.00;46.60;;;;;;5032641;28;20199;-44
2021/07/19 10:40:58;;;;;;;4.53;3.85;;;29.60;46.80;;;;;;5031217;28;20204;-44
2021/07/19 10:43:28;;;;;;;5.57;4.18;;;29.20;48.10;;;;;;5034494;28;20195;-44
2021/07/19 10:45:59;;;;;;;5.38;3.97;;;28.90;48.90;;;;;;5035855;28;20639;-43
2021/07/19 10:48:33;;;;;;;6.80;4.30;;;28.70;49.40;;;;;;5032420;28;20204;-44
2021/07/19 10:51:17;;;;;;;5.33;4.80;;;28.60;49.80;;;;;;5030655;28;20619;-43
2021/07/19 10:53:44;;;;;;;4.87;4.40;;;28.40;49.80;;;;;;5031453;28;20218;-45
2021/07/19 10:56:12;;;;;;;6.40;4.00;;;28.10;50.00;;;;;;5029129;28;20227;-44
2021/07/19 10:58:47;;;;;;;10.73;5.80;;;27.90;50.60;;;;;;5036642;28;20212;-44
2021/07/19 11:01:31;;;;;;;6.17;4.43;;;27.80;50.80;;;;;;5032978;28;20200;-43
2021/07/19 11:03:59;;;;;;;4.90;4.23;;;27.60;49.60;;;;;;5030059;28;20253;-43
2021/07/19 11:06:38;;;;;;;6.50;5.87;;;27.40;50.80;;;;;;5034478;28;20295;-44
2021/07/19 11:09:09;;;;;;;5.83;4.70;;;27.30;50.90;;;;;;5042132;28;20207;-44
2021/07/19 11:11:39;;;;;;;10.13;5.27;;;27.00;50.70;;;;;;5034923;28;20458;-43
2021/07/19 11:14:19;;;;;;;7.17;5.57;;;27.00;51.40;;;;;;5032215;28;20216;-43
2021/07/19 11:16:52;;;;;;;8.27;5.40;;;27.00;51.90;;;;;;5032534;28;20490;-43
2021/07/19 11:19:39;;;;;;;8.23;4.57;;;27.00;53.10;;;;;;5031084;28;20466;-44
2021/07/19 11:22:27;;;;;;;5.53;4.50;;;27.00;54.50;;;;;;5037064;28;20572;-43
2021/07/19 11:25:08;;;;;;;10.03;4.97;;;26.80;53.60;;;;;;5036654;28;20978;-44
2021/07/19 11:27:45;;;;;;;6.50;5.03;;;26.80;54.60;;;;;;5033634;28;20494;-44
2021/07/19 11:30:19;;;;;;;7.37;5.47;;;26.80;53.50;;;;;;5036123;28;20500;-44
2021/07/19 11:32:46;;;;;;;6.60;5.50;;;26.80;53.10;;;;;;5037039;28;20477;-43
2021/07/19 11:35:21;;;;;;;5.70;4.93;;;26.70;53.90;;;;;;5035432;28;20450;-43
2021/07/19 11:37:59;;;;;;;8.03;5.97;;;26.70;52.30;;;;;;5032601;28;20227;-44
2021/07/19 11:40:30;;;;;;;6.70;5.83;;;26.60;53.10;;;;;;5034614;28;20462;-43
2021/07/19 11:43:19;;;;;;;8.50;5.57;;;26.60;53.40;;;;;;5035018;28;20481;-44
2021/07/19 11:45:48;;;;;;;9.83;6.00;;;26.60;54.00;;;;;;5033779;28;20451;-43
2021/07/19 11:48:21;;;;;;;6.30;5.70;;;26.70;53.00;;;;;;5036398;28;20850;-44
2021/07/19 11:50:54;;;;;;;7.83;6.17;;;26.80;52.90;;;;;;5035084;28;20462;-44
2021/07/19 11:53:21;;;;;;;8.83;6.07;;;27.00;52.90;;;;;;5037912;28;20481;-44
2021/07/19 11:55:50;;;;;;;6.70;5.80;;;27.10;53.50;;;;;;5035144;28;20545;-44
2021/07/19 11:58:18;;;;;;;9.10;6.63;;;27.20;53.00;;;;;;5039807;28;20231;-44
2021/07/19 12:00:46;;;;;;;11.60;7.10;;;27.30;53.00;;;;;;5035432;28;20314;-43
2021/07/19 12:03:17;;;;;;;7.37;6.33;;;27.30;52.00;;;;;;5034572;28;20460;-44
2021/07/19 12:05:52;;;;;;;10.67;6.80;;;27.30;53.70;;;;;;5035980;28;20462;-43
2021/07/19 12:08:39;;;;;;;8.37;7.40;;;27.30;52.50;;;;;;5033888;28;20291;-44
2021/07/19 12:11:10;;;;;;;8.20;7.40;;;27.20;51.50;;;;;;5037668;28;20227;-44
2021/07/19 12:13:39;;;;;;;9.63;7.40;;;27.10;52.70;;;;;;5040258;28;20204;-44
2021/07/19 12:16:08;;;;;;;10.20;7.43;;;26.90;52.70;;;;;;5043056;28;20496;-44
2021/07/19 12:18:48;;;;;;;12.27;8.30;;;26.80;54.00;;;;;;5030567;28;20461;-44
2021/07/19 12:21:16;;;;;;;9.80;7.10;;;26.70;54.10;;;;;;5033058;28;20478;-43
2021/07/19 12:23:49;;;;;;;9.90;7.87;;;26.70;54.90;;;;;;5035316;28;20458;-43
2021/07/19 12:26:38;;;;;;;10.20;8.77;;;26.60;55.10;;;;;;5039049;28;20473;-43
2021/07/19 12:29:04;;;;;;;12.23;8.50;;;26.70;53.70;;;;;;5036506;28;20454;-43
2021/07/19 12:31:39;;;;;;;10.60;9.03;;;26.70;53.20;;;;;;5038257;28;20466;-43
2021/07/19 12:34:13;;;;;;;11.70;9.50;;;26.70;52.30;;;;;;5035307;28;20462;-43
2021/07/19 12:36:45;;;;;;;11.70;9.13;;;26.70;52.50;;;;;;5034576;28;20539;-44
2021/07/19 12:39:17;;;;;;;15.23;10.00;;;26.70;51.60;;;;;;5035216;28;22115;-44
2021/07/19 12:41:47;;;;;;;14.20;9.27;;;26.70;52.80;;;;;;5040572;28;20455;-44
2021/07/19 12:44:14;;;;;;;11.80;10.07;;;26.70;53.70;;;;;;5036042;28;21026;-43
2021/07/19 12:46:44;;;;;;;11.87;9.33;;;26.60;52.80;;;;;;5036687;28;20462;-44
2021/07/19 12:49:12;;;;;;;14.07;10.37;;;26.60;52.20;;;;;;5036031;28;20594;-44
2021/07/19 12:51:40;;;;;;;14.90;10.67;;;26.50;52.00;;;;;;5034264;28;20550;-43
2021/07/19 12:54:09;;;;;;;15.63;10.20;;;26.50;52.30;;;;;;5036282;28;20502;-44
2021/07/19 12:56:39;;;;;;;12.93;9.53;;;26.60;53.00;;;;;;5038365;28;20487;-44
2021/07/19 12:59:10;;;;;;;11.47;9.43;;;26.70;53.00;;;;;;5036212;28;20463;-43